Time;durP1;ratioP1;P1;durP2;ratioP2;P2;SDS_P1;SDS_P2;PMS_P1;PMS_P2;Temp;Humidity;BMP_temperature;BMP_pressure;BME280_temperature;BME280_humidity;BME280_pressure;Samples;Min_cycle;Max_cycle;Signal;HPM_P1;HPM_P2
2022/03/01 00:02:08;;;;;;;9.73;4.82;;;-2.80;93.80;-3.70;100231.00;;;;4995387;28;93935;-61
2022/03/01 00:04:34;;;;;;;10.63;4.75;;;-2.90;93.70;-3.70;100229.00;;;;4998727;28;92068;-61
2022/03/01 00:07:01;;;;;;;9.93;5.57;;;-2.80;93.80;-3.70;100222.00;;;;4999193;28;92379;-61
2022/03/01 00:09:27;;;;;;;7.82;4.50;;;-2.80;93.80;-3.70;100220.00;;;;4999410;28;92974;-61
2022/03/01 00:11:53;;;;;;;10.05;4.72;;;-2.90;93.70;-3.70;100219.00;;;;4998851;28;92993;-61
2022/03/01 00:14:19;;;;;;;9.95;5.07;;;-2.90;93.60;-3.80;100221.00;;;;4997829;28;93093;-62
2022/03/01 00:16:45;;;;;;;9.63;4.95;;;-3.00;93.70;-3.90;100219.00;;;;5000010;28;91371;-61
2022/03/01 00:19:11;;;;;;;13.05;4.78;;;-3.00;93.90;-3.90;100212.00;;;;4999190;28;92668;-62
2022/03/01 00:21:37;;;;;;;8.35;4.90;;;-3.10;94.00;-4.00;100216.00;;;;4998409;28;92359;-61
2022/03/01 00:24:04;;;;;;;7.97;5.13;;;-3.10;94.30;-4.10;100219.00;;;;4998993;28;93605;-61
2022/03/01 00:26:31;;;;;;;8.93;5.18;;;-3.20;94.50;-4.20;100214.00;;;;4997217;28;92092;-61
2022/03/01 00:28:57;;;;;;;9.95;5.15;;;-3.40;94.80;-4.40;100223.00;;;;4999546;28;92663;-62
2022/03/01 00:31:23;;;;;;;7.55;4.47;;;-3.40;95.00;-4.30;100220.00;;;;4998661;28;93098;-62
2022/03/01 00:33:49;;;;;;;9.50;4.47;;;-3.40;94.90;-4.20;100218.00;;;;4999520;28;92295;-61
2022/03/01 00:36:15;;;;;;;8.85;4.53;;;-3.20;94.50;-4.00;100225.00;;;;4998216;28;92407;-62
2022/03/01 00:38:41;;;;;;;9.75;4.55;;;-3.10;93.90;-4.00;100213.00;;;;4999024;28;92706;-61
2022/03/01 00:41:07;;;;;;;7.70;3.83;;;-3.10;93.90;-3.80;100212.00;;;;4998570;28;94337;-60
2022/03/01 00:43:33;;;;;;;8.15;3.70;;;-2.90;93.60;-3.80;100208.00;;;;4999371;28;91965;-62
2022/03/01 00:46:00;;;;;;;7.60;3.72;;;-2.90;93.10;-3.80;100202.00;;;;4998100;28;93053;-60
2022/03/01 00:48:26;;;;;;;10.85;3.97;;;-3.00;93.10;-3.90;100216.00;;;;4998419;28;93723;-60
2022/03/01 00:50:52;;;;;;;8.00;3.85;;;-3.00;93.00;-3.90;100201.00;;;;4998465;28;93277;-60
2022/03/01 00:53:18;;;;;;;7.57;3.90;;;-3.00;92.60;-3.90;100198.00;;;;4999390;28;92057;-61
2022/03/01 00:55:44;;;;;;;6.32;3.13;;;-3.00;92.60;-3.90;100206.00;;;;4997307;28;92031;-61
2022/03/01 00:58:10;;;;;;;6.38;3.55;;;-3.00;92.60;-3.80;100202.00;;;;4998278;28;92692;-61
2022/03/01 01:00:37;;;;;;;6.70;3.40;;;-2.90;92.60;-3.80;100198.00;;;;4998597;28;92541;-61
2022/03/01 01:03:04;;;;;;;5.32;3.45;;;-2.90;92.30;-3.80;100201.00;;;;4999197;28;92225;-59
2022/03/01 01:05:30;;;;;;;6.93;3.53;;;-2.90;92.60;-4.00;100193.00;;;;4997857;28;91312;-61
2022/03/01 01:07:57;;;;;;;10.60;4.40;;;-3.10;92.50;-4.00;100189.00;;;;4998085;28;92687;-61
2022/03/01 01:10:23;;;;;;;6.43;3.45;;;-3.10;92.60;-4.00;100192.00;;;;4998488;28;92365;-61
2022/03/01 01:12:50;;;;;;;7.75;3.88;;;-3.20;92.80;-4.10;100190.00;;;;4997606;28;92952;-59
2022/03/01 01:15:18;;;;;;;11.38;3.67;;;-3.20;92.80;-4.10;100177.00;;;;4998366;28;92975;-60
2022/03/01 01:17:45;;;;;;;7.68;4.15;;;-3.20;92.80;-4.10;100187.00;;;;4997572;28;92879;-60
2022/03/01 01:20:12;;;;;;;5.85;3.28;;;-3.20;92.50;-4.00;100198.00;;;;4998326;28;92342;-59
2022/03/01 01:22:41;;;;;;;6.95;3.75;;;-3.10;92.50;-4.00;100192.00;;;;4998387;28;92196;-60
2022/03/01 01:25:22;;;;;;;5.40;3.05;;;-3.10;92.50;-3.90;100190.00;;;;4997410;28;92266;-60
2022/03/01 01:27:54;;;;;;;5.03;2.80;;;-2.90;91.80;-3.70;100193.00;;;;4995620;28;93742;-59
2022/03/01 01:30:24;;;;;;;5.10;2.78;;;-2.90;91.50;-3.70;100187.00;;;;5014161;28;92320;-59
2022/03/01 01:32:51;;;;;;;4.80;2.90;;;-2.80;91.30;-3.60;100193.00;;;;4998437;28;91989;-57
2022/03/01 01:35:24;;;;;;;7.25;3.22;;;-2.80;91.20;-3.70;100192.00;;;;4997681;28;92020;-59
2022/03/01 01:37:52;;;;;;;6.03;3.28;;;-2.90;91.30;-3.70;100192.00;;;;4996286;28;94488;-60
2022/03/01 01:40:22;;;;;;;4.75;3.33;;;-2.90;91.40;-3.70;100198.00;;;;4996980;28;93268;-58
2022/03/01 01:42:48;;;;;;;4.20;2.78;;;-2.90;91.30;-3.70;100190.00;;;;5013536;28;92510;-58
2022/03/01 01:45:15;;;;;;;4.95;2.90;;;-2.80;91.30;-3.70;100188.00;;;;4998088;28;92392;-59
2022/03/01 01:47:41;;;;;;;3.50;2.60;;;-2.80;91.10;-3.60;100190.00;;;;4997410;28;92595;-59
2022/03/01 01:50:09;;;;;;;3.90;2.53;;;-2.80;91.00;-3.60;100194.00;;;;4997164;28;94331;-58
2022/03/01 01:52:35;;;;;;;5.07;2.78;;;-2.70;90.80;-3.60;100197.00;;;;4997954;28;92320;-59
2022/03/01 01:55:03;;;;;;;5.00;2.50;;;-2.70;90.80;-3.60;100190.00;;;;4998585;28;91663;-58
2022/03/01 01:57:29;;;;;;;5.07;2.80;;;-2.70;90.40;-3.50;100192.00;;;;4997976;28;92391;-59
2022/03/01 01:59:56;;;;;;;3.92;2.20;;;-2.70;90.40;-3.60;100194.00;;;;4996243;28;92489;-58
2022/03/01 02:02:25;;;;;;;5.03;2.38;;;-2.70;90.40;-3.50;100187.00;;;;4997437;28;93025;-61
2022/03/01 02:04:51;;;;;;;6.60;2.50;;;-2.60;89.90;-3.50;100186.00;;;;4997849;28;92193;-62
2022/03/01 02:07:17;;;;;;;4.20;2.55;;;-2.70;90.00;-3.60;100194.00;;;;4997385;28;92544;-61
2022/03/01 02:09:44;;;;;;;6.60;2.80;;;-2.80;90.20;-3.70;100192.00;;;;4997939;28;92868;-60
2022/03/01 02:12:10;;;;;;;3.78;2.88;;;-2.90;90.40;-3.80;100176.00;;;;4997727;28;91958;-59
2022/03/01 02:14:38;;;;;;;5.10;2.85;;;-2.90;90.30;-3.90;100186.00;;;;4997251;28;92036;-60
2022/03/01 02:17:08;;;;;;;5.72;3.17;;;-3.00;90.60;-4.10;100194.00;;;;4997707;28;92627;-59
2022/03/01 02:19:35;;;;;;;5.43;2.80;;;-3.20;91.00;-4.10;100192.00;;;;4997309;28;93712;-58
2022/03/01 02:22:01;;;;;;;5.53;2.72;;;-3.20;91.20;-4.20;100202.00;;;;4996897;28;92468;-59
2022/03/01 02:24:30;;;;;;;6.72;3.35;;;-3.30;91.70;-4.10;100191.00;;;;4987684;28;92311;-59
2022/03/01 02:26:59;;;;;;;4.88;3.05;;;-3.20;91.30;-4.10;100197.00;;;;4990876;28;93724;-60
2022/03/01 02:29:27;;;;;;;4.47;3.00;;;-3.20;91.30;-4.00;100193.00;;;;4997239;28;93252;-59
2022/03/01 02:31:55;;;;;;;5.22;2.83;;;-3.20;91.10;-4.00;100200.00;;;;4997529;28;92374;-59
2022/03/01 02:34:22;;;;;;;3.85;2.58;;;-3.10;91.00;-4.00;100197.00;;;;4997468;28;92474;-59
2022/03/01 02:36:49;;;;;;;5.15;3.08;;;-3.20;90.90;-4.10;100201.00;;;;4998048;28;92876;-59
2022/03/01 02:39:15;;;;;;;5.18;3.33;;;-3.20;90.90;-4.10;100191.00;;;;4997510;28;93413;-58
2022/03/01 02:41:44;;;;;;;4.50;2.47;;;-3.20;91.00;-4.20;100199.00;;;;4996787;28;92048;-61
2022/03/01 02:44:11;;;;;;;6.05;3.20;;;-3.30;91.20;-4.40;100196.00;;;;5013915;28;91361;-59
2022/03/01 02:46:38;;;;;;;6.82;4.05;;;-3.50;91.40;-4.60;100191.00;;;;5000439;28;92765;-59
2022/03/01 02:49:07;;;;;;;7.32;4.57;;;-3.70;91.80;-4.70;100208.00;;;;5015884;28;93528;-60
2022/03/01 02:51:34;;;;;;;8.13;3.83;;;-3.80;92.80;-4.80;100188.00;;;;5000088;28;92905;-59
2022/03/01 02:54:02;;;;;;;6.68;3.60;;;-3.90;93.00;-4.80;100196.00;;;;5001252;28;92360;-60
2022/03/01 02:56:28;;;;;;;9.75;3.25;;;-3.90;92.60;-4.80;100202.00;;;;5000277;28;92650;-60
2022/03/01 02:58:55;;;;;;;8.05;4.00;;;-3.80;92.50;-4.80;100210.00;;;;5000746;28;92362;-60
2022/03/01 03:01:22;;;;;;;5.05;3.25;;;-3.80;92.50;-4.70;100192.00;;;;5000402;28;92107;-60
2022/03/01 03:03:49;;;;;;;9.07;4.10;;;-3.70;92.20;-4.70;100199.00;;;;5001155;28;92263;-59
2022/03/01 03:06:19;;;;;;;4.50;2.83;;;-3.70;92.20;-4.50;100198.00;;;;5000184;28;93227;-59
2022/03/01 03:08:46;;;;;;;6.97;3.17;;;-3.50;91.20;-4.40;100187.00;;;;5000519;28;92438;-59
2022/03/01 03:11:12;;;;;;;9.23;3.40;;;-3.50;91.20;-4.40;100182.00;;;;5000638;28;92977;-60
2022/03/01 03:13:38;;;;;;;5.47;3.10;;;-3.50;91.20;-4.40;100181.00;;;;4999763;28;92373;-59
2022/03/01 03:16:07;;;;;;;6.90;3.78;;;-3.50;91.00;-4.40;100181.00;;;;4999451;28;94011;-59
2022/03/01 03:18:34;;;;;;;7.38;3.10;;;-3.40;91.00;-4.20;100178.00;;;;4999997;28;93243;-59
2022/03/01 03:21:00;;;;;;;7.50;3.08;;;-3.30;90.60;-4.30;100174.00;;;;5000354;28;91981;-58
2022/03/01 03:23:26;;;;;;;5.38;3.33;;;-3.30;90.60;-4.30;100175.00;;;;5000420;28;91971;-59
2022/03/01 03:25:52;;;;;;;5.63;2.80;;;-3.40;90.50;-4.20;100184.00;;;;4999979;28;92720;-59
2022/03/01 03:28:18;;;;;;;6.55;3.10;;;-3.30;90.50;-4.30;100176.00;;;;4999620;28;92955;-58
2022/03/01 03:30:44;;;;;;;8.13;3.70;;;-3.40;90.40;-4.30;100173.00;;;;5000358;28;92616;-59
2022/03/01 03:33:10;;;;;;;5.38;3.58;;;-3.40;90.50;-4.30;100178.00;;;;5000503;28;91931;-59
2022/03/01 03:35:36;;;;;;;4.28;2.60;;;-3.40;90.30;-4.30;100179.00;;;;4999717;28;93239;-58
2022/03/01 03:38:03;;;;;;;5.07;2.47;;;-3.40;90.20;-4.30;100175.00;;;;5000059;28;92425;-59
2022/03/01 03:40:29;;;;;;;3.85;2.50;;;-3.40;89.80;-4.20;100176.00;;;;4999811;28;92941;-57
2022/03/01 03:42:56;;;;;;;6.75;3.03;;;-3.30;89.00;-4.10;100171.00;;;;4999886;28;92752;-60
2022/03/01 03:45:22;;;;;;;4.40;2.30;;;-3.30;88.50;-4.00;100166.00;;;;4999876;28;92739;-59
2022/03/01 03:47:49;;;;;;;7.00;2.63;;;-3.10;86.90;-4.00;100165.00;;;;4998138;28;93490;-59
2022/03/01 03:50:15;;;;;;;3.50;2.25;;;-3.00;86.00;-3.90;100167.00;;;;5000431;28;93003;-61
2022/03/01 03:52:42;;;;;;;4.70;2.35;;;-3.00;85.30;-3.80;100165.00;;;;5014961;28;92170;-60
2022/03/01 03:55:10;;;;;;;3.38;2.28;;;-3.00;85.30;-3.80;100168.00;;;;4998712;28;93745;-61
2022/03/01 03:57:37;;;;;;;4.50;2.20;;;-2.90;84.30;-3.70;100165.00;;;;4999432;28;92488;-59
2022/03/01 04:00:07;;;;;;;4.10;2.10;;;-2.90;84.00;-3.70;100165.00;;;;4999669;28;92090;-57
2022/03/01 04:02:33;;;;;;;3.15;2.40;;;-2.80;84.40;-3.80;100161.00;;;;4999502;28;92258;-60
2022/03/01 04:05:00;;;;;;;4.93;2.20;;;-2.90;84.70;-3.90;100164.00;;;;4998637;28;93702;-60
2022/03/01 04:07:27;;;;;;;3.33;2.33;;;-3.00;85.30;-3.90;100162.00;;;;4998587;28;93436;-59
2022/03/01 04:09:53;;;;;;;5.32;2.50;;;-3.00;85.30;-3.90;100169.00;;;;4997979;28;92045;-59
2022/03/01 04:12:19;;;;;;;5.03;2.10;;;-3.10;86.10;-3.90;100165.00;;;;4999042;28;92493;-59
2022/03/01 04:14:46;;;;;;;2.92;2.25;;;-3.00;85.90;-3.90;100171.00;;;;4997811;28;92824;-59
2022/03/01 04:17:12;;;;;;;4.80;2.28;;;-3.10;86.30;-4.00;100164.00;;;;4998310;28;92383;-60
2022/03/01 04:19:38;;;;;;;4.75;2.45;;;-3.20;87.00;-4.20;100171.00;;;;4999026;28;92455;-59
2022/03/01 04:22:04;;;;;;;4.05;2.28;;;-3.30;87.70;-4.20;100167.00;;;;4999766;28;92059;-59
2022/03/01 04:24:30;;;;;;;5.53;2.35;;;-3.40;87.90;-4.10;100168.00;;;;4998591;28;92867;-58
2022/03/01 04:26:56;;;;;;;3.63;2.30;;;-3.40;88.30;-4.00;100173.00;;;;4998354;28;92083;-59
2022/03/01 04:29:24;;;;;;;5.75;2.35;;;-3.30;88.40;-3.70;100180.00;;;;4998971;28;93524;-58
2022/03/01 04:31:51;;;;;;;3.97;2.10;;;-3.20;88.10;-3.30;100172.00;;;;5014085;28;92498;-59
2022/03/01 04:34:17;;;;;;;3.65;2.42;;;-2.90;87.50;-3.00;100185.00;;;;4996832;28;94126;-60
2022/03/01 04:36:43;;;;;;;8.38;2.90;;;-2.80;87.00;-2.70;100180.00;;;;4998440;28;92396;-57
2022/03/01 04:39:09;;;;;;;5.18;2.60;;;-2.70;87.10;-2.50;100176.00;;;;4997435;28;92054;-59
2022/03/01 04:41:36;;;;;;;4.10;2.58;;;-2.70;87.00;-2.30;100178.00;;;;4998411;28;92317;-59
2022/03/01 04:44:05;;;;;;;7.32;3.08;;;-2.60;86.90;-2.10;100173.00;;;;4998033;28;92536;-58
2022/03/01 04:46:32;;;;;;;6.22;3.30;;;-2.50;87.20;-1.90;100168.00;;;;4997965;28;92607;-59
2022/03/01 04:48:59;;;;;;;6.45;3.20;;;-2.40;86.90;-1.70;100178.00;;;;4998883;28;92261;-60
2022/03/01 04:51:25;;;;;;;7.13;3.08;;;-2.30;86.60;-1.60;100175.00;;;;4998018;28;92555;-61
2022/03/01 04:53:52;;;;;;;7.45;3.05;;;-2.10;85.70;-1.50;100178.00;;;;4997089;28;93717;-61
2022/03/01 04:56:19;;;;;;;9.07;3.13;;;-2.00;84.40;-1.30;100183.00;;;;4997910;28;93848;-59
2022/03/01 04:58:45;;;;;;;4.93;2.28;;;-1.90;83.80;-1.30;100186.00;;;;4998976;28;92459;-59
2022/03/01 05:01:11;;;;;;;8.95;3.20;;;-1.80;81.90;-1.10;100187.00;;;;4998136;28;92439;-58
2022/03/01 05:03:37;;;;;;;5.63;2.92;;;-1.70;82.10;-1.50;100188.00;;;;5014167;28;93271;-59
2022/03/01 05:06:04;;;;;;;6.20;2.97;;;-1.70;81.30;-2.00;100186.00;;;;4996600;28;92493;-57
2022/03/01 05:08:30;;;;;;;4.43;2.03;;;-1.80;81.00;-2.30;100194.00;;;;4964010;28;92004;-59
2022/03/01 05:10:58;;;;;;;6.07;2.38;;;-1.90;79.80;-2.50;100191.00;;;;4980715;28;91364;-58
2022/03/01 05:13:24;;;;;;;4.00;2.03;;;-1.90;79.80;-2.60;100187.00;;;;4995885;28;92853;-62
2022/03/01 05:15:51;;;;;;;4.55;2.65;;;-2.00;79.80;-2.70;100181.00;;;;4997127;28;92076;-60
2022/03/01 05:18:17;;;;;;;4.47;2.30;;;-2.00;79.40;-2.80;100187.00;;;;4998267;28;93160;-59
2022/03/01 05:20:43;;;;;;;9.27;3.50;;;-2.00;79.90;-2.80;100187.00;;;;4998176;28;92005;-62
2022/03/01 05:23:10;;;;;;;6.45;3.38;;;-2.10;80.90;-2.80;100178.00;;;;5013477;28;92570;-62
2022/03/01 05:25:38;;;;;;;4.88;2.20;;;-2.00;80.40;-2.70;100182.00;;;;4993743;28;94733;-60
2022/03/01 05:28:05;;;;;;;6.25;2.80;;;-2.00;78.90;-2.60;100177.00;;;;4998200;28;91964;-59
2022/03/01 05:30:31;;;;;;;5.50;2.40;;;-1.90;80.10;-2.60;100171.00;;;;4997428;28;92199;-59
2022/03/01 05:32:57;;;;;;;6.60;2.28;;;-1.90;79.50;-2.60;100185.00;;;;4997654;28;93317;-59
2022/03/01 05:35:26;;;;;;;4.55;2.65;;;-1.80;79.70;-2.50;100181.00;;;;4997519;28;92332;-59
2022/03/01 05:37:54;;;;;;;6.93;2.58;;;-1.80;78.50;-2.50;100188.00;;;;4998286;28;92387;-60
2022/03/01 05:40:23;;;;;;;5.53;2.25;;;-1.80;79.10;-2.50;100187.00;;;;4996933;28;93137;-59
2022/03/01 05:42:49;;;;;;;4.80;2.35;;;-1.80;79.00;-2.40;100185.00;;;;5012318;28;93567;-62
2022/03/01 05:45:16;;;;;;;8.10;3.08;;;-1.70;78.60;-2.40;100174.00;;;;4997957;28;93600;-59
2022/03/01 05:47:43;;;;;;;8.05;3.22;;;-1.60;79.80;-2.30;100179.00;;;;4997146;28;91995;-61
2022/03/01 05:50:12;;;;;;;5.78;2.60;;;-1.60;79.70;-2.20;100181.00;;;;4997243;28;92528;-59
2022/03/01 05:52:39;;;;;;;6.30;2.90;;;-1.50;79.60;-2.20;100176.00;;;;4996733;28;92801;-60
2022/03/01 05:55:07;;;;;;;9.80;4.07;;;-1.40;80.50;-2.10;100183.00;;;;4997009;28;92198;-61
2022/03/01 05:57:33;;;;;;;7.38;3.80;;;-1.40;80.60;-2.00;100181.00;;;;4979045;28;92748;-59
2022/03/01 05:59:59;;;;;;;13.10;4.47;;;-1.30;80.50;-2.00;100187.00;;;;4997707;28;91810;-60
2022/03/01 06:02:26;;;;;;;9.55;3.50;;;-1.30;81.40;-2.00;100177.00;;;;4996930;28;92993;-61
2022/03/01 06:04:53;;;;;;;10.20;3.97;;;-1.30;81.30;-1.90;100183.00;;;;4993219;28;92363;-61
2022/03/01 06:07:19;;;;;;;11.18;3.97;;;-1.20;81.60;-1.90;100192.00;;;;4994634;28;93002;-60
2022/03/01 06:09:46;;;;;;;7.57;3.42;;;-1.20;81.80;-1.80;100195.00;;;;4998290;28;92159;-61
2022/03/01 06:12:12;;;;;;;8.48;3.63;;;-1.20;81.20;-1.70;100196.00;;;;4995623;28;95741;-59
2022/03/01 06:14:38;;;;;;;14.60;5.45;;;-1.10;81.90;-1.70;100203.00;;;;4994427;28;93486;-62
2022/03/01 06:17:07;;;;;;;12.38;5.00;;;-1.00;82.50;-1.60;100195.00;;;;4997652;28;92272;-59
2022/03/01 06:19:33;;;;;;;9.68;3.90;;;-1.00;82.20;-1.60;100191.00;;;;4997576;28;92631;-59
2022/03/01 06:22:00;;;;;;;15.88;5.13;;;-0.90;81.90;-1.50;100194.00;;;;5001018;28;92935;-60
2022/03/01 06:24:27;;;;;;;18.27;5.32;;;-0.90;81.70;-1.40;100190.00;;;;5000459;28;93446;-58
2022/03/01 06:26:56;;;;;;;16.42;5.05;;;-0.80;82.20;-1.40;100198.00;;;;5000769;28;92236;-61
2022/03/01 06:29:22;;;;;;;20.55;5.43;;;-0.70;82.30;-1.30;100187.00;;;;5001141;28;92197;-59
2022/03/01 06:31:57;;;;;;;14.73;4.07;;;-0.60;81.70;-1.30;100190.00;;;;5000333;28;93591;-60
2022/03/01 06:34:23;;;;;;;15.70;4.85;;;-0.60;81.30;-1.20;100185.00;;;;5001095;28;92180;-60
2022/03/01 06:36:50;;;;;;;9.60;4.15;;;-0.50;81.40;-1.10;100191.00;;;;5001360;28;91913;-60
2022/03/01 06:39:16;;;;;;;9.98;4.13;;;-0.40;80.30;-1.10;100196.00;;;;4983035;28;92446;-60
2022/03/01 06:41:43;;;;;;;11.23;3.88;;;-0.40;79.90;-1.00;100196.00;;;;4998801;28;95747;-60
2022/03/01 06:44:09;;;;;;;15.10;4.35;;;-0.30;79.10;-0.90;100189.00;;;;5000666;28;92019;-60
2022/03/01 06:46:35;;;;;;;9.57;3.60;;;-0.20;79.00;-0.80;100191.00;;;;5000312;28;91966;-60
2022/03/01 06:49:02;;;;;;;11.23;4.40;;;-0.20;78.70;-0.70;100201.00;;;;5016722;28;91367;-61
2022/03/01 06:51:28;;;;;;;13.70;3.75;;;-0.10;79.00;-0.60;100197.00;;;;4998583;28;94770;-60
2022/03/01 06:53:55;;;;;;;7.50;3.83;;;-0.10;78.80;-0.60;100194.00;;;;4999613;28;95404;-60
2022/03/01 06:56:21;;;;;;;9.98;3.38;;;0.00;77.70;-0.50;100203.00;;;;5000232;28;93297;-59
2022/03/01 06:58:47;;;;;;;14.77;4.93;;;0.00;77.60;-0.50;100208.00;;;;5000321;28;92420;-60
2022/03/01 07:01:13;;;;;;;8.57;3.47;;;0.10;77.70;-0.40;100207.00;;;;5000242;28;92599;-59
2022/03/01 07:03:42;;;;;;;10.55;3.67;;;0.20;77.10;-0.40;100202.00;;;;5000600;28;92493;-60
2022/03/01 07:06:09;;;;;;;5.28;3.20;;;0.20;77.00;-0.30;100200.00;;;;4998929;28;92375;-60
2022/03/01 07:08:35;;;;;;;6.18;2.92;;;0.20;75.90;-0.20;100199.00;;;;4998106;28;94219;-59
2022/03/01 07:11:01;;;;;;;6.25;2.72;;;0.30;75.20;-0.20;100201.00;;;;5000055;28;92843;-60
2022/03/01 07:13:27;;;;;;;7.82;3.30;;;0.40;75.20;-0.10;100210.00;;;;4999157;28;93044;-60
2022/03/01 07:15:53;;;;;;;6.85;2.95;;;0.40;75.20;0.00;100199.00;;;;4999156;28;92407;-59
2022/03/01 07:18:19;;;;;;;10.75;3.22;;;0.40;74.80;0.00;100209.00;;;;5000182;28;92046;-60
2022/03/01 07:20:45;;;;;;;7.18;2.83;;;0.50;74.90;0.00;100191.00;;;;4999007;28;93717;-60
2022/03/01 07:23:12;;;;;;;5.32;2.58;;;0.60;74.40;0.10;100198.00;;;;4999510;28;93311;-60
2022/03/01 07:25:39;;;;;;;7.03;2.83;;;0.60;74.00;0.10;100212.00;;;;5000106;28;92150;-59
2022/03/01 07:28:05;;;;;;;6.95;3.30;;;0.70;74.10;0.20;100222.00;;;;5000351;28;92097;-60
2022/03/01 07:30:31;;;;;;;6.28;2.72;;;0.70;74.30;0.20;100208.00;;;;4999139;28;92619;-59
2022/03/01 07:32:58;;;;;;;10.25;3.20;;;0.80;74.30;0.30;100209.00;;;;5031769;28;92152;-60
2022/03/01 07:35:25;;;;;;;6.55;3.30;;;0.80;74.30;0.40;100213.00;;;;5000214;28;92091;-59
2022/03/01 07:37:52;;;;;;;10.20;3.35;;;0.90;74.60;0.40;100213.00;;;;5016122;28;91407;-59
2022/03/01 07:40:22;;;;;;;6.40;3.10;;;0.90;74.70;0.50;100221.00;;;;5014527;28;92985;-59
2022/03/01 07:42:50;;;;;;;7.45;2.75;;;1.00;74.00;0.50;100222.00;;;;4993484;28;92467;-60
2022/03/01 07:45:17;;;;;;;7.72;3.00;;;1.00;73.40;0.60;100221.00;;;;4999275;28;93004;-59
2022/03/01 07:47:44;;;;;;;5.88;3.00;;;1.00;73.30;0.60;100216.00;;;;4999597;28;92995;-60
2022/03/01 07:50:11;;;;;;;8.48;3.38;;;1.00;73.60;0.70;100221.00;;;;4999110;28;92634;-60
2022/03/01 07:52:37;;;;;;;6.20;2.78;;;1.10;73.10;0.80;100219.00;;;;4998063;28;92999;-60
2022/03/01 07:55:05;;;;;;;6.82;3.15;;;1.30;73.40;0.80;100216.00;;;;4982132;28;92648;-60
2022/03/01 07:57:32;;;;;;;7.53;3.13;;;1.20;73.00;0.80;100216.00;;;;4999573;28;92536;-58
2022/03/01 07:59:59;;;;;;;6.15;2.95;;;1.30;72.50;0.90;100211.00;;;;4999165;28;92859;-60
2022/03/01 08:02:25;;;;;;;5.68;3.00;;;1.30;72.30;1.00;100205.00;;;;4997822;28;93392;-61
2022/03/01 08:04:51;;;;;;;10.43;3.63;;;1.40;72.60;1.00;100211.00;;;;5000216;28;91968;-60
2022/03/01 08:07:21;;;;;;;11.23;3.45;;;1.50;73.50;1.00;100202.00;;;;4999050;28;91998;-60
2022/03/01 08:09:47;;;;;;;7.95;3.28;;;1.50;74.20;1.10;100207.00;;;;4999073;28;93645;-60
2022/03/01 08:12:13;;;;;;;11.63;3.33;;;1.60;73.80;1.20;100215.00;;;;4998317;28;93355;-60
2022/03/01 08:14:39;;;;;;;8.07;3.35;;;1.70;73.30;1.30;100205.00;;;;4998766;28;92649;-59
2022/03/01 08:17:05;;;;;;;8.02;3.13;;;1.80;72.00;1.30;100201.00;;;;5014448;28;92268;-60
2022/03/01 08:19:31;;;;;;;8.38;2.97;;;1.80;71.20;1.30;100204.00;;;;4997645;28;93269;-61
2022/03/01 08:21:59;;;;;;;9.43;3.15;;;1.80;70.40;1.40;100197.00;;;;4998301;28;92404;-60
2022/03/01 08:24:27;;;;;;;5.75;2.70;;;1.80;68.30;1.40;100204.00;;;;4999346;28;92483;-59
2022/03/01 08:26:53;;;;;;;6.43;2.80;;;1.80;68.10;1.40;100204.00;;;;4998299;28;91559;-60
2022/03/01 08:29:19;;;;;;;6.07;2.95;;;1.80;67.50;1.40;100214.00;;;;4997752;28;92665;-61
2022/03/01 08:31:46;;;;;;;8.85;3.50;;;1.80;68.20;1.50;100202.00;;;;4998651;28;92386;-61
2022/03/01 08:34:14;;;;;;;8.95;3.72;;;1.90;69.50;1.50;100210.00;;;;4998300;28;92954;-60
2022/03/01 08:36:40;;;;;;;10.40;3.40;;;2.00;70.70;1.50;100206.00;;;;4998647;28;92212;-60
2022/03/01 08:39:06;;;;;;;11.85;3.70;;;1.90;70.30;1.60;100208.00;;;;4998309;28;92708;-60
2022/03/01 08:41:33;;;;;;;10.95;4.07;;;2.00;70.20;1.60;100207.00;;;;4997514;28;92359;-59
2022/03/01 08:43:59;;;;;;;8.60;3.92;;;2.00;70.00;1.60;100198.00;;;;4998528;28;92246;-59
2022/03/01 08:46:25;;;;;;;12.68;4.32;;;2.00;69.70;1.60;100205.00;;;;4998627;28;92027;-59
2022/03/01 08:48:53;;;;;;;12.25;4.03;;;2.00;69.40;1.70;100203.00;;;;4998043;28;93317;-60
2022/03/01 08:51:21;;;;;;;8.27;3.38;;;2.10;69.10;1.80;100206.00;;;;4998839;28;93564;-57
2022/03/01 08:53:49;;;;;;;11.98;3.80;;;2.10;68.50;1.80;100210.00;;;;4998189;28;92464;-59
2022/03/01 08:56:16;;;;;;;13.27;4.03;;;2.20;68.60;1.80;100207.00;;;;4998494;28;92376;-60
2022/03/01 08:58:44;;;;;;;10.32;3.63;;;2.10;68.40;1.80;100212.00;;;;4998119;28;93646;-60
2022/03/01 09:01:11;;;;;;;8.65;3.28;;;2.20;67.70;1.80;100210.00;;;;4998407;28;93185;-62
2022/03/01 09:03:37;;;;;;;9.65;3.63;;;2.20;67.40;1.80;100205.00;;;;5014064;28;92354;-62
2022/03/01 09:06:06;;;;;;;18.77;3.92;;;2.20;67.50;1.90;100203.00;;;;4997535;28;92117;-62
2022/03/01 09:08:40;;;;;;;11.70;3.70;;;2.30;68.60;2.00;100207.00;;;;4996864;28;92647;-62
2022/03/01 09:11:13;;;;;;;12.18;4.00;;;2.30;67.30;2.00;100210.00;;;;5007176;28;92931;-62
2022/03/01 09:13:40;;;;;;;16.42;4.07;;;2.40;67.00;2.00;100212.00;;;;4997087;28;92245;-61
2022/03/01 09:16:07;;;;;;;9.98;3.95;;;2.40;66.80;2.00;100208.00;;;;4997598;28;91309;-62
2022/03/01 09:18:34;;;;;;;10.35;3.53;;;2.40;66.70;2.10;100206.00;;;;4996815;28;92770;-62
2022/03/01 09:21:02;;;;;;;14.30;3.45;;;2.50;66.90;2.20;100204.00;;;;4997911;28;92443;-61
2022/03/01 09:23:28;;;;;;;9.15;3.13;;;2.50;65.70;2.20;100201.00;;;;4996519;28;93496;-57
2022/03/01 09:25:57;;;;;;;9.60;2.80;;;2.50;65.10;2.20;100202.00;;;;4997827;28;92400;-59
2022/03/01 09:28:23;;;;;;;8.85;3.22;;;2.50;64.00;2.20;100197.00;;;;4997209;28;93827;-58
2022/03/01 09:30:49;;;;;;;8.23;3.30;;;2.60;63.30;2.30;100197.00;;;;4996452;28;92294;-62
2022/03/01 09:33:15;;;;;;;9.68;3.50;;;2.60;63.10;2.30;100198.00;;;;4997626;28;92103;-61
2022/03/01 09:35:42;;;;;;;9.25;3.53;;;2.70;62.50;2.30;100203.00;;;;4997630;28;92047;-62
2022/03/01 09:38:08;;;;;;;7.43;3.75;;;2.70;62.60;2.40;100191.00;;;;4997718;28;93043;-62
2022/03/01 09:40:35;;;;;;;10.32;3.58;;;2.70;63.30;2.40;100192.00;;;;4997642;28;93723;-61
2022/03/01 09:43:02;;;;;;;12.85;3.53;;;2.70;63.00;2.40;100191.00;;;;4997893;28;92081;-61
2022/03/01 09:45:31;;;;;;;13.23;4.03;;;2.80;63.00;2.50;100183.00;;;;4997514;28;92538;-62
2022/03/01 09:47:57;;;;;;;15.25;3.55;;;2.90;62.30;2.50;100186.00;;;;4996751;28;93743;-61
2022/03/01 09:50:30;;;;;;;11.88;3.15;;;2.90;62.00;2.60;100199.00;;;;4997526;28;93308;-62
2022/03/01 09:53:00;;;;;;;9.95;3.83;;;2.90;61.80;2.50;100189.00;;;;4997509;28;92260;-61
2022/03/01 09:55:27;;;;;;;9.45;3.45;;;2.80;60.10;2.60;100191.00;;;;4997234;28;92183;-61
2022/03/01 09:57:53;;;;;;;9.23;3.50;;;2.80;60.00;2.60;100170.00;;;;4997434;28;92745;-62
2022/03/01 10:00:20;;;;;;;12.15;3.70;;;2.90;58.60;2.70;100172.00;;;;4996607;28;92501;-62
2022/03/01 10:02:53;;;;;;;8.18;3.40;;;3.00;58.30;2.80;100165.00;;;;4997542;28;92337;-62
2022/03/01 10:05:31;;;;;;;8.93;2.88;;;3.10;57.30;2.80;100173.00;;;;4996617;28;91195;-60
2022/03/01 10:08:09;;;;;;;8.25;3.25;;;3.10;57.20;2.80;100167.00;;;;4996592;28;92628;-61
2022/03/01 10:10:40;;;;;;;8.73;3.28;;;3.10;58.70;2.80;100165.00;;;;4995537;28;93437;-60
2022/03/01 10:13:07;;;;;;;12.55;3.08;;;3.10;58.40;2.80;100167.00;;;;5011807;28;93418;-61
2022/03/01 10:15:33;;;;;;;7.78;2.60;;;3.20;58.70;2.80;100156.00;;;;4996957;28;92404;-64
2022/03/01 10:18:12;;;;;;;12.02;2.53;;;3.10;57.20;2.80;100153.00;;;;4997441;28;91960;-62
2022/03/01 10:20:41;;;;;;;8.57;2.92;;;3.10;56.90;2.80;100153.00;;;;5007251;28;93099;-62
2022/03/01 10:23:10;;;;;;;10.82;2.58;;;3.00;57.30;2.80;100150.00;;;;4995219;28;92391;-61
2022/03/01 10:25:39;;;;;;;12.70;3.25;;;3.10;57.80;2.80;100145.00;;;;4995063;28;92133;-60
2022/03/01 10:28:07;;;;;;;12.35;3.00;;;3.10;58.10;2.90;100145.00;;;;5008317;28;92697;-60
2022/03/01 10:30:38;;;;;;;18.38;3.58;;;3.20;58.60;2.90;100141.00;;;;4995421;28;92389;-60
2022/03/01 10:33:16;;;;;;;16.85;3.17;;;3.20;58.60;3.00;100141.00;;;;4995618;28;91979;-60
2022/03/01 10:35:56;;;;;;;13.70;3.10;;;3.30;57.00;3.00;100146.00;;;;5008990;28;92183;-60
2022/03/01 10:38:24;;;;;;;9.13;2.67;;;3.30;56.60;3.00;100138.00;;;;4995610;28;93745;-60
2022/03/01 10:40:59;;;;;;;8.35;2.83;;;3.30;56.50;3.00;100149.00;;;;4996204;28;93479;-61
2022/03/01 10:43:27;;;;;;;13.57;3.00;;;3.30;54.60;3.10;100148.00;;;;4994188;28;92022;-61
2022/03/01 10:45:57;;;;;;;12.30;2.80;;;3.40;54.40;3.10;100133.00;;;;5011953;28;92134;-61
2022/03/01 10:48:37;;;;;;;5.75;2.45;;;3.40;54.10;3.10;100133.00;;;;4995023;28;93563;-59
2022/03/01 10:51:08;;;;;;;11.68;3.42;;;3.40;54.20;3.10;100134.00;;;;4995899;28;92438;-60